Amistad, New Mexico
Current Conditions -  °F | °C
As of 3:53 AM on Sunday 23 Nov 2014 (Local Time) from KDHT Reporting Station
Clear Clear  
Wind Chill:   Ceiling: Unl
Heat Index:   Visibility: 10mi
Dew Point: -6°   Wind: 18mph
Humidity: 35%   Direction: 270°W
Pressure: 29.49"   Gusts: NA
Location:  35.92°N, 103.16°W
Report Text: KDHT 231053Z AUTO 27016KT 10SM CLR 09/M06 A2949 RMK AO2 SLP948 T00941056
Loading
Personal Weather Stations






























Interactive Weather Map New forecast layout! Learn more

10-Day Weather Forecast

Advertisements
Track Severe Weather on mobile